sensor_id;sensor_type;location;lat;lon;timestamp;temperature;humidity
1570;DHT22;778;50.120;8.698;2023-08-01T00:00:27;18.10;99.90
1570;DHT22;778;50.120;8.698;2023-08-01T00:02:57;17.90;99.90
1570;DHT22;778;50.120;8.698;2023-08-01T00:05:26;17.90;99.90
1570;DHT22;778;50.120;8.698;2023-08-01T00:07:54;18.10;99.90
1570;DHT22;778;50.120;8.698;2023-08-01T00:10:24;17.90;99.90
1570;DHT22;778;50.120;8.698;2023-08-01T00:12:52;17.80;99.90
1570;DHT22;778;50.120;8.698;2023-08-01T00:15:21;17.80;99.90
1570;DHT22;778;50.120;8.698;2023-08-01T00:17:49;18.00;99.90
1570;DHT22;778;50.120;8.698;2023-08-01T00:20:18;17.90;99.90
1570;DHT22;778;50.120;8.698;2023-08-01T00:22:46;17.90;99.90
1570;DHT22;778;50.120;8.698;2023-08-01T00:25:17;17.80;99.90
1570;DHT22;778;50.120;8.698;2023-08-01T00:27:47;17.60;99.90
1570;DHT22;778;50.120;8.698;2023-08-01T00:30:15;17.60;99.90
1570;DHT22;778;50.120;8.698;2023-08-01T00:32:44;17.60;99.90
1570;DHT22;778;50.120;8.698;2023-08-01T00:35:12;17.80;99.90
1570;DHT22;778;50.120;8.698;2023-08-01T00:37:41;17.70;99.90
1570;DHT22;778;50.120;8.698;2023-08-01T00:40:09;17.70;99.90
1570;DHT22;778;50.120;8.698;2023-08-01T00:42:39;17.60;99.90
1570;DHT22;778;50.120;8.698;2023-08-01T00:45:10;17.70;99.90
1570;DHT22;778;50.120;8.698;2023-08-01T00:47:39;17.70;99.90
1570;DHT22;778;50.120;8.698;2023-08-01T00:50:08;17.70;99.90
1570;DHT22;778;50.120;8.698;2023-08-01T00:52:37;17.90;99.90
1570;DHT22;778;50.120;8.698;2023-08-01T00:55:07;17.80;99.90
1570;DHT22;778;50.120;8.698;2023-08-01T00:57:36;17.70;99.90
1570;DHT22;778;50.120;8.698;2023-08-01T01:02:37;17.90;99.90
1570;DHT22;778;50.120;8.698;2023-08-01T01:05:07;17.90;99.90
1570;DHT22;778;50.120;8.698;2023-08-01T01:07:37;17.80;99.90
1570;DHT22;778;50.120;8.698;2023-08-01T01:10:06;18.00;99.90
1570;DHT22;778;50.120;8.698;2023-08-01T01:12:35;18.20;99.90
1570;DHT22;778;50.120;8.698;2023-08-01T01:15:04;18.10;99.90
1570;DHT22;778;50.120;8.698;2023-08-01T01:17:33;18.20;99.90
1570;DHT22;778;50.120;8.698;2023-08-01T01:20:03;18.10;99.90
1570;DHT22;778;50.120;8.698;2023-08-01T01:22:34;18.00;99.90
1570;DHT22;778;50.120;8.698;2023-08-01T01:25:03;17.80;99.90
1570;DHT22;778;50.120;8.698;2023-08-01T01:27:34;17.80;99.90
1570;DHT22;778;50.120;8.698;2023-08-01T01:30:04;17.80;99.90
1570;DHT22;778;50.120;8.698;2023-08-01T01:32:34;18.00;99.90
1570;DHT22;778;50.120;8.698;2023-08-01T01:35:03;18.20;99.90
1570;DHT22;778;50.120;8.698;2023-08-01T01:37:34;18.40;99.90
1570;DHT22;778;50.120;8.698;2023-08-01T01:40:02;18.40;99.90
1570;DHT22;778;50.120;8.698;2023-08-01T01:42:31;18.30;99.90
1570;DHT22;778;50.120;8.698;2023-08-01T01:44:59;18.20;99.90
1570;DHT22;778;50.120;8.698;2023-08-01T01:47:28;18.20;99.90
1570;DHT22;778;50.120;8.698;2023-08-01T01:49:56;18.30;99.90
1570;DHT22;778;50.120;8.698;2023-08-01T01:52:25;18.30;99.90
1570;DHT22;778;50.120;8.698;2023-08-01T01:54:54;18.20;99.90
1570;DHT22;778;50.120;8.698;2023-08-01T01:57:23;18.10;99.90
1570;DHT22;778;50.120;8.698;2023-08-01T01:59:51;18.10;99.90
1570;DHT22;778;50.120;8.698;2023-08-01T02:02:20;18.10;99.90
1570;DHT22;778;50.120;8.698;2023-08-01T02:04:50;17.90;99.90
1570;DHT22;778;50.120;8.698;2023-08-01T02:07:19;17.80;99.90
1570;DHT22;778;50.120;8.698;2023-08-01T02:09:48;17.80;99.90
1570;DHT22;778;50.120;8.698;2023-08-01T02:12:18;17.90;99.90
1570;DHT22;778;50.120;8.698;2023-08-01T02:14:46;17.90;99.90
1570;DHT22;778;50.120;8.698;2023-08-01T02:17:15;17.90;99.90
1570;DHT22;778;50.120;8.698;2023-08-01T02:19:43;17.70;99.90
1570;DHT22;778;50.120;8.698;2023-08-01T02:22:12;17.70;99.90
1570;DHT22;778;50.120;8.698;2023-08-01T02:24:40;17.90;99.90
1570;DHT22;778;50.120;8.698;2023-08-01T02:27:08;17.90;99.90
1570;DHT22;778;50.120;8.698;2023-08-01T02:29:38;18.00;99.90
1570;DHT22;778;50.120;8.698;2023-08-01T02:32:07;18.10;99.90
1570;DHT22;778;50.120;8.698;2023-08-01T02:34:35;18.00;99.90
1570;DHT22;778;50.120;8.698;2023-08-01T02:37:04;18.00;99.90
1570;DHT22;778;50.120;8.698;2023-08-01T02:39:34;18.00;99.90
1570;DHT22;778;50.120;8.698;2023-08-01T02:42:03;17.80;99.90
1570;DHT22;778;50.120;8.698;2023-08-01T02:44:31;18.10;99.90
1570;DHT22;778;50.120;8.698;2023-08-01T02:47:01;18.00;99.90
1570;DHT22;778;50.120;8.698;2023-08-01T02:49:29;18.00;99.90
1570;DHT22;778;50.120;8.698;2023-08-01T02:51:58;18.00;99.90
1570;DHT22;778;50.120;8.698;2023-08-01T02:54:27;18.10;99.90
1570;DHT22;778;50.120;8.698;2023-08-01T02:56:55;18.20;99.90
1570;DHT22;778;50.120;8.698;2023-08-01T02:59:23;18.10;99.90
1570;DHT22;778;50.120;8.698;2023-08-01T03:01:52;18.20;99.90
1570;DHT22;778;50.120;8.698;2023-08-01T03:04:22;18.20;99.90
1570;DHT22;778;50.120;8.698;2023-08-01T03:07:10;18.20;99.90
1570;DHT22;778;50.120;8.698;2023-08-01T03:09:38;18.20;99.90
1570;DHT22;778;50.120;8.698;2023-08-01T03:12:09;18.20;99.90
1570;DHT22;778;50.120;8.698;2023-08-01T03:14:38;18.30;99.90
1570;DHT22;778;50.120;8.698;2023-08-01T03:17:08;18.30;99.90
1570;DHT22;778;50.120;8.698;2023-08-01T03:19:38;18.30;99.90
1570;DHT22;778;50.120;8.698;2023-08-01T03:22:06;18.40;99.90
1570;DHT22;778;50.120;8.698;2023-08-01T03:24:35;18.30;99.90
1570;DHT22;778;50.120;8.698;2023-08-01T03:27:04;18.40;99.90
1570;DHT22;778;50.120;8.698;2023-08-01T03:29:33;18.40;99.90
1570;DHT22;778;50.120;8.698;2023-08-01T03:32:01;18.20;99.90
1570;DHT22;778;50.120;8.698;2023-08-01T03:34:30;18.30;99.90
1570;DHT22;778;50.120;8.698;2023-08-01T03:37:00;18.30;99.90
1570;DHT22;778;50.120;8.698;2023-08-01T03:39:28;18.20;99.90
1570;DHT22;778;50.120;8.698;2023-08-01T03:41:57;18.50;99.90
1570;DHT22;778;50.120;8.698;2023-08-01T03:44:25;18.60;99.90
1570;DHT22;778;50.120;8.698;2023-08-01T03:46:53;18.20;99.90
1570;DHT22;778;50.120;8.698;2023-08-01T03:49:22;18.50;99.90
1570;DHT22;778;50.120;8.698;2023-08-01T03:51:50;18.50;99.90
1570;DHT22;778;50.120;8.698;2023-08-01T03:54:20;18.30;99.90
1570;DHT22;778;50.120;8.698;2023-08-01T03:56:48;18.30;99.90
1570;DHT22;778;50.120;8.698;2023-08-01T03:59:18;18.40;99.90
1570;DHT22;778;50.120;8.698;2023-08-01T04:01:46;18.50;99.90
1570;DHT22;778;50.120;8.698;2023-08-01T04:04:16;18.40;99.90
1570;DHT22;778;50.120;8.698;2023-08-01T04:06:44;18.50;99.90
1570;DHT22;778;50.120;8.698;2023-08-01T04:09:13;18.60;99.90
1570;DHT22;778;50.120;8.698;2023-08-01T04:11:42;18.70;99.90
1570;DHT22;778;50.120;8.698;2023-08-01T04:14:11;18.40;99.90
1570;DHT22;778;50.120;8.698;2023-08-01T04:16:39;18.80;99.90
1570;DHT22;778;50.120;8.698;2023-08-01T04:19:08;18.70;99.90
1570;DHT22;778;50.120;8.698;2023-08-01T04:21:36;18.50;99.90
1570;DHT22;778;50.120;8.698;2023-08-01T04:24:05;18.30;99.90
1570;DHT22;778;50.120;8.698;2023-08-01T04:26:33;18.50;99.90
1570;DHT22;778;50.120;8.698;2023-08-01T04:29:05;18.50;99.90
1570;DHT22;778;50.120;8.698;2023-08-01T04:31:34;18.70;99.90
1570;DHT22;778;50.120;8.698;2023-08-01T04:34:02;18.50;99.90
1570;DHT22;778;50.120;8.698;2023-08-01T04:36:31;18.40;99.90
1570;DHT22;778;50.120;8.698;2023-08-01T04:38:59;18.40;99.90
1570;DHT22;778;50.120;8.698;2023-08-01T04:41:27;18.30;99.90
1570;DHT22;778;50.120;8.698;2023-08-01T04:43:56;18.30;99.90
1570;DHT22;778;50.120;8.698;2023-08-01T04:46:25;18.20;99.90
1570;DHT22;778;50.120;8.698;2023-08-01T04:48:54;18.60;99.90
1570;DHT22;778;50.120;8.698;2023-08-01T04:51:22;18.40;99.90
1570;DHT22;778;50.120;8.698;2023-08-01T04:53:51;18.30;99.90
1570;DHT22;778;50.120;8.698;2023-08-01T04:56:19;18.10;99.90
1570;DHT22;778;50.120;8.698;2023-08-01T04:58:47;18.00;99.90
1570;DHT22;778;50.120;8.698;2023-08-01T05:01:16;18.00;99.90
1570;DHT22;778;50.120;8.698;2023-08-01T05:03:46;18.20;99.90
1570;DHT22;778;50.120;8.698;2023-08-01T05:06:14;18.30;99.90
1570;DHT22;778;50.120;8.698;2023-08-01T05:08:42;18.10;99.90
1570;DHT22;778;50.120;8.698;2023-08-01T05:11:11;18.10;99.90
1570;DHT22;778;50.120;8.698;2023-08-01T05:13:39;18.10;99.90
1570;DHT22;778;50.120;8.698;2023-08-01T05:16:08;18.10;99.90
1570;DHT22;778;50.120;8.698;2023-08-01T05:18:36;18.20;99.90
1570;DHT22;778;50.120;8.698;2023-08-01T05:21:06;18.30;99.90
1570;DHT22;778;50.120;8.698;2023-08-01T05:23:34;18.30;99.90
1570;DHT22;778;50.120;8.698;2023-08-01T05:26:03;18.30;99.90
1570;DHT22;778;50.120;8.698;2023-08-01T05:28:31;18.20;99.90
1570;DHT22;778;50.120;8.698;2023-08-01T05:30:59;18.20;99.90
1570;DHT22;778;50.120;8.698;2023-08-01T05:33:28;18.40;99.90
1570;DHT22;778;50.120;8.698;2023-08-01T05:35:56;18.70;99.90
1570;DHT22;778;50.120;8.698;2023-08-01T05:38:26;18.20;99.90
1570;DHT22;778;50.120;8.698;2023-08-01T05:40:54;18.50;99.90
1570;DHT22;778;50.120;8.698;2023-08-01T05:43:23;18.60;99.90
1570;DHT22;778;50.120;8.698;2023-08-01T05:45:51;18.40;99.90
1570;DHT22;778;50.120;8.698;2023-08-01T05:48:21;18.20;99.90
1570;DHT22;778;50.120;8.698;2023-08-01T05:50:49;18.10;99.90
1570;DHT22;778;50.120;8.698;2023-08-01T05:53:18;18.50;99.90
1570;DHT22;778;50.120;8.698;2023-08-01T05:55:47;18.50;99.90
1570;DHT22;778;50.120;8.698;2023-08-01T05:58:16;18.40;99.90
1570;DHT22;778;50.120;8.698;2023-08-01T06:00:44;18.40;99.90
1570;DHT22;778;50.120;8.698;2023-08-01T06:03:13;18.30;99.90
1570;DHT22;778;50.120;8.698;2023-08-01T06:05:41;18.20;99.90
1570;DHT22;778;50.120;8.698;2023-08-01T06:08:09;18.40;99.90
1570;DHT22;778;50.120;8.698;2023-08-01T06:10:40;18.20;99.90
1570;DHT22;778;50.120;8.698;2023-08-01T06:13:09;18.20;99.90
1570;DHT22;778;50.120;8.698;2023-08-01T06:15:38;18.10;99.90
1570;DHT22;778;50.120;8.698;2023-08-01T06:18:06;18.00;99.90
1570;DHT22;778;50.120;8.698;2023-08-01T06:20:35;18.00;99.90
1570;DHT22;778;50.120;8.698;2023-08-01T06:23:03;18.00;99.90
1570;DHT22;778;50.120;8.698;2023-08-01T06:25:31;18.30;99.90
1570;DHT22;778;50.120;8.698;2023-08-01T06:28:00;18.30;99.90
1570;DHT22;778;50.120;8.698;2023-08-01T06:30:30;18.10;99.90
1570;DHT22;778;50.120;8.698;2023-08-01T06:32:58;17.80;99.90
1570;DHT22;778;50.120;8.698;2023-08-01T06:35:26;17.80;99.90
1570;DHT22;778;50.120;8.698;2023-08-01T06:37:55;17.70;99.90
1570;DHT22;778;50.120;8.698;2023-08-01T06:40:23;17.60;99.90
1570;DHT22;778;50.120;8.698;2023-08-01T06:42:52;17.50;99.90
1570;DHT22;778;50.120;8.698;2023-08-01T06:45:20;17.50;99.90
1570;DHT22;778;50.120;8.698;2023-08-01T06:47:50;17.50;99.90
1570;DHT22;778;50.120;8.698;2023-08-01T06:50:19;17.50;99.90
1570;DHT22;778;50.120;8.698;2023-08-01T06:52:47;17.50;99.90
1570;DHT22;778;50.120;8.698;2023-08-01T06:55:16;17.40;99.90
1570;DHT22;778;50.120;8.698;2023-08-01T06:57:44;17.30;99.90
1570;DHT22;778;50.120;8.698;2023-08-01T07:00:13;17.30;99.90
1570;DHT22;778;50.120;8.698;2023-08-01T07:02:42;17.30;99.90
1570;DHT22;778;50.120;8.698;2023-08-01T07:05:12;17.40;99.90
1570;DHT22;778;50.120;8.698;2023-08-01T07:07:40;17.40;99.90
1570;DHT22;778;50.120;8.698;2023-08-01T07:10:10;17.50;99.90
1570;DHT22;778;50.120;8.698;2023-08-01T07:12:38;17.50;99.90
1570;DHT22;778;50.120;8.698;2023-08-01T07:15:08;17.50;99.90
1570;DHT22;778;50.120;8.698;2023-08-01T07:17:37;17.50;99.90
1570;DHT22;778;50.120;8.698;2023-08-01T07:20:06;17.50;99.90
1570;DHT22;778;50.120;8.698;2023-08-01T07:22:36;17.50;99.90
1570;DHT22;778;50.120;8.698;2023-08-01T07:25:06;17.50;99.90
1570;DHT22;778;50.120;8.698;2023-08-01T07:27:37;17.50;99.90
1570;DHT22;778;50.120;8.698;2023-08-01T07:30:06;17.50;99.90
1570;DHT22;778;50.120;8.698;2023-08-01T07:32:36;17.40;99.90
1570;DHT22;778;50.120;8.698;2023-08-01T07:35:06;17.50;99.90
1570;DHT22;778;50.120;8.698;2023-08-01T07:37:36;17.50;99.90
1570;DHT22;778;50.120;8.698;2023-08-01T07:40:06;17.60;99.90
1570;DHT22;778;50.120;8.698;2023-08-01T07:42:35;17.70;99.90
1570;DHT22;778;50.120;8.698;2023-08-01T07:45:04;17.70;99.90
1570;DHT22;778;50.120;8.698;2023-08-01T07:47:34;17.80;99.90
1570;DHT22;778;50.120;8.698;2023-08-01T07:50:02;18.00;99.90
1570;DHT22;778;50.120;8.698;2023-08-01T07:52:31;18.20;99.90
1570;DHT22;778;50.120;8.698;2023-08-01T07:55:01;18.20;99.90
1570;DHT22;778;50.120;8.698;2023-08-01T07:57:29;18.20;99.90
1570;DHT22;778;50.120;8.698;2023-08-01T08:00:01;18.10;99.90
1570;DHT22;778;50.120;8.698;2023-08-01T08:02:42;18.20;99.90
1570;DHT22;778;50.120;8.698;2023-08-01T08:05:12;18.60;99.90
1570;DHT22;778;50.120;8.698;2023-08-01T08:07:40;19.20;99.90
1570;DHT22;778;50.120;8.698;2023-08-01T08:10:10;19.80;99.90
1570;DHT22;778;50.120;8.698;2023-08-01T08:12:39;20.40;99.90
1570;DHT22;778;50.120;8.698;2023-08-01T08:15:08;21.00;99.90
1570;DHT22;778;50.120;8.698;2023-08-01T08:17:37;21.50;99.90
1570;DHT22;778;50.120;8.698;2023-08-01T08:20:06;22.00;99.90
1570;DHT22;778;50.120;8.698;2023-08-01T08:22:35;21.80;99.90
1570;DHT22;778;50.120;8.698;2023-08-01T08:25:04;22.40;99.90
1570;DHT22;778;50.120;8.698;2023-08-01T08:27:34;22.60;99.90
1570;DHT22;778;50.120;8.698;2023-08-01T08:30:03;22.80;99.90
1570;DHT22;778;50.120;8.698;2023-08-01T08:32:33;23.20;99.90
1570;DHT22;778;50.120;8.698;2023-08-01T08:35:04;22.70;99.90
1570;DHT22;778;50.120;8.698;2023-08-01T08:37:32;22.70;99.90
1570;DHT22;778;50.120;8.698;2023-08-01T08:40:01;23.30;99.90
1570;DHT22;778;50.120;8.698;2023-08-01T08:42:33;22.80;99.90
1570;DHT22;778;50.120;8.698;2023-08-01T08:45:04;22.90;99.90
1570;DHT22;778;50.120;8.698;2023-08-01T08:47:38;22.90;99.90
1570;DHT22;778;50.120;8.698;2023-08-01T08:50:10;22.90;99.90
1570;DHT22;778;50.120;8.698;2023-08-01T08:52:38;22.70;99.90
1570;DHT22;778;50.120;8.698;2023-08-01T08:55:08;22.20;99.90
1570;DHT22;778;50.120;8.698;2023-08-01T08:57:38;22.20;99.90
1570;DHT22;778;50.120;8.698;2023-08-01T09:00:07;22.20;99.90
1570;DHT22;778;50.120;8.698;2023-08-01T09:02:36;21.90;99.90
1570;DHT22;778;50.120;8.698;2023-08-01T09:05:05;22.40;99.90
1570;DHT22;778;50.120;8.698;2023-08-01T09:07:34;23.10;99.90
1570;DHT22;778;50.120;8.698;2023-08-01T09:10:07;23.40;99.90
1570;DHT22;778;50.120;8.698;2023-08-01T09:15:07;23.10;99.90
1570;DHT22;778;50.120;8.698;2023-08-01T09:17:47;23.80;99.90
1570;DHT22;778;50.120;8.698;2023-08-01T09:20:17;23.50;99.90
1570;DHT22;778;50.120;8.698;2023-08-01T09:22:46;23.30;99.90
1570;DHT22;778;50.120;8.698;2023-08-01T09:25:15;23.40;99.90
1570;DHT22;778;50.120;8.698;2023-08-01T09:27:45;23.60;99.90
1570;DHT22;778;50.120;8.698;2023-08-01T09:30:14;23.50;99.90
1570;DHT22;778;50.120;8.698;2023-08-01T09:32:51;22.90;99.90
1570;DHT22;778;50.120;8.698;2023-08-01T09:35:20;22.30;99.90
1570;DHT22;778;50.120;8.698;2023-08-01T09:37:49;22.30;99.90
1570;DHT22;778;50.120;8.698;2023-08-01T09:40:19;22.50;99.90
1570;DHT22;778;50.120;8.698;2023-08-01T09:42:49;22.70;99.90
1570;DHT22;778;50.120;8.698;2023-08-01T09:45:18;23.30;99.90
1570;DHT22;778;50.120;8.698;2023-08-01T09:47:46;23.20;99.90
1570;DHT22;778;50.120;8.698;2023-08-01T09:50:20;23.00;99.90
1570;DHT22;778;50.120;8.698;2023-08-01T09:52:50;23.50;99.90
1570;DHT22;778;50.120;8.698;2023-08-01T09:55:26;24.10;99.90
1570;DHT22;778;50.120;8.698;2023-08-01T09:58:01;23.70;99.90
1570;DHT22;778;50.120;8.698;2023-08-01T10:00:30;23.20;99.90
1570;DHT22;778;50.120;8.698;2023-08-01T10:03:00;23.10;99.90
1570;DHT22;778;50.120;8.698;2023-08-01T10:05:30;22.50;99.90
1570;DHT22;778;50.120;8.698;2023-08-01T10:08:00;22.20;99.90
1570;DHT22;778;50.120;8.698;2023-08-01T10:10:29;22.50;99.90
1570;DHT22;778;50.120;8.698;2023-08-01T10:12:58;22.40;99.90
1570;DHT22;778;50.120;8.698;2023-08-01T10:15:30;22.50;99.90
1570;DHT22;778;50.120;8.698;2023-08-01T10:17:59;22.70;99.90
1570;DHT22;778;50.120;8.698;2023-08-01T10:20:30;22.30;99.90
1570;DHT22;778;50.120;8.698;2023-08-01T10:22:59;22.00;99.90
1570;DHT22;778;50.120;8.698;2023-08-01T10:25:29;21.90;99.90
1570;DHT22;778;50.120;8.698;2023-08-01T10:27:59;21.60;99.90
1570;DHT22;778;50.120;8.698;2023-08-01T10:30:30;21.40;99.90
1570;DHT22;778;50.120;8.698;2023-08-01T10:33:00;21.50;99.90
1570;DHT22;778;50.120;8.698;2023-08-01T10:35:32;21.40;99.90
1570;DHT22;778;50.120;8.698;2023-08-01T10:38:05;21.50;99.90
1570;DHT22;778;50.120;8.698;2023-08-01T10:40:36;22.10;99.90
1570;DHT22;778;50.120;8.698;2023-08-01T10:43:06;22.50;99.90
1570;DHT22;778;50.120;8.698;2023-08-01T10:45:47;23.20;99.90
1570;DHT22;778;50.120;8.698;2023-08-01T10:48:15;23.50;99.90
1570;DHT22;778;50.120;8.698;2023-08-01T10:50:54;23.90;99.90
1570;DHT22;778;50.120;8.698;2023-08-01T10:53:23;23.80;99.90
1570;DHT22;778;50.120;8.698;2023-08-01T10:55:52;23.20;99.90
1570;DHT22;778;50.120;8.698;2023-08-01T10:58:26;22.50;99.90
1570;DHT22;778;50.120;8.698;2023-08-01T11:00:58;22.60;99.90
1570;DHT22;778;50.120;8.698;2023-08-01T11:03:34;22.70;99.90
1570;DHT22;778;50.120;8.698;2023-08-01T11:06:03;22.60;99.90
1570;DHT22;778;50.120;8.698;2023-08-01T11:08:36;22.50;99.90
1570;DHT22;778;50.120;8.698;2023-08-01T11:11:05;22.40;99.90
1570;DHT22;778;50.120;8.698;2023-08-01T11:13:36;22.20;99.90
1570;DHT22;778;50.120;8.698;2023-08-01T11:16:05;22.00;99.90
1570;DHT22;778;50.120;8.698;2023-08-01T11:18:41;21.80;99.90
1570;DHT22;778;50.120;8.698;2023-08-01T11:21:10;21.60;99.90
1570;DHT22;778;50.120;8.698;2023-08-01T11:23:38;21.80;99.90
1570;DHT22;778;50.120;8.698;2023-08-01T11:26:08;21.90;99.90
1570;DHT22;778;50.120;8.698;2023-08-01T11:28:37;22.20;99.90
1570;DHT22;778;50.120;8.698;2023-08-01T11:31:12;22.80;99.90
1570;DHT22;778;50.120;8.698;2023-08-01T11:36:10;23.20;99.90
1570;DHT22;778;50.120;8.698;2023-08-01T11:38:38;22.70;99.90
1570;DHT22;778;50.120;8.698;2023-08-01T11:41:07;22.70;99.90
1570;DHT22;778;50.120;8.698;2023-08-01T11:43:40;22.70;99.90
1570;DHT22;778;50.120;8.698;2023-08-01T11:46:10;23.00;99.90
1570;DHT22;778;50.120;8.698;2023-08-01T11:48:44;23.00;99.90
1570;DHT22;778;50.120;8.698;2023-08-01T11:51:13;23.20;99.90
1570;DHT22;778;50.120;8.698;2023-08-01T11:53:42;23.00;99.90
1570;DHT22;778;50.120;8.698;2023-08-01T11:56:20;23.10;99.90
1570;DHT22;778;50.120;8.698;2023-08-01T11:58:50;23.00;99.90
1570;DHT22;778;50.120;8.698;2023-08-01T12:01:19;23.10;99.90
1570;DHT22;778;50.120;8.698;2023-08-01T12:03:49;23.20;99.90
1570;DHT22;778;50.120;8.698;2023-08-01T12:06:20;23.20;99.90
1570;DHT22;778;50.120;8.698;2023-08-01T12:08:52;22.90;99.90
1570;DHT22;778;50.120;8.698;2023-08-01T12:11:22;22.80;99.90
1570;DHT22;778;50.120;8.698;2023-08-01T12:14:03;22.50;99.90
1570;DHT22;778;50.120;8.698;2023-08-01T12:16:33;22.60;99.90
1570;DHT22;778;50.120;8.698;2023-08-01T12:19:02;22.40;99.90
1570;DHT22;778;50.120;8.698;2023-08-01T12:21:32;22.40;99.90
1570;DHT22;778;50.120;8.698;2023-08-01T12:24:02;22.50;99.90
1570;DHT22;778;50.120;8.698;2023-08-01T12:26:31;22.70;99.90
1570;DHT22;778;50.120;8.698;2023-08-01T12:28:59;22.80;99.90
1570;DHT22;778;50.120;8.698;2023-08-01T12:31:29;22.90;99.90
1570;DHT22;778;50.120;8.698;2023-08-01T12:33:57;22.90;99.90
1570;DHT22;778;50.120;8.698;2023-08-01T12:36:26;23.00;99.90
1570;DHT22;778;50.120;8.698;2023-08-01T12:38:55;22.80;99.90
1570;DHT22;778;50.120;8.698;2023-08-01T12:41:23;22.70;99.90
1570;DHT22;778;50.120;8.698;2023-08-01T12:43:52;22.20;99.90
1570;DHT22;778;50.120;8.698;2023-08-01T12:46:20;22.30;99.90
1570;DHT22;778;50.120;8.698;2023-08-01T12:48:50;22.10;99.90
1570;DHT22;778;50.120;8.698;2023-08-01T12:51:18;21.80;99.90
1570;DHT22;778;50.120;8.698;2023-08-01T12:53:47;21.30;99.90
1570;DHT22;778;50.120;8.698;2023-08-01T12:56:15;20.90;99.90
1570;DHT22;778;50.120;8.698;2023-08-01T12:58:44;20.60;99.90
1570;DHT22;778;50.120;8.698;2023-08-01T13:01:12;20.50;99.90
1570;DHT22;778;50.120;8.698;2023-08-01T13:03:41;20.50;99.90
1570;DHT22;778;50.120;8.698;2023-08-01T13:06:11;20.60;99.90
1570;DHT22;778;50.120;8.698;2023-08-01T13:08:40;20.50;99.90
1570;DHT22;778;50.120;8.698;2023-08-01T13:11:13;20.50;99.90
1570;DHT22;778;50.120;8.698;2023-08-01T13:13:42;20.60;99.90
1570;DHT22;778;50.120;8.698;2023-08-01T13:16:11;20.90;99.90
1570;DHT22;778;50.120;8.698;2023-08-01T13:18:40;21.00;99.90
1570;DHT22;778;50.120;8.698;2023-08-01T13:21:13;21.20;99.90
1570;DHT22;778;50.120;8.698;2023-08-01T13:23:42;21.30;99.90
1570;DHT22;778;50.120;8.698;2023-08-01T13:26:10;21.50;99.90
1570;DHT22;778;50.120;8.698;2023-08-01T13:28:39;21.50;99.90
1570;DHT22;778;50.120;8.698;2023-08-01T13:31:07;21.60;99.90
1570;DHT22;778;50.120;8.698;2023-08-01T13:33:36;21.70;99.90
1570;DHT22;778;50.120;8.698;2023-08-01T13:36:04;21.80;99.90
1570;DHT22;778;50.120;8.698;2023-08-01T13:38:34;21.80;99.90
1570;DHT22;778;50.120;8.698;2023-08-01T13:41:03;21.90;99.90
1570;DHT22;778;50.120;8.698;2023-08-01T13:43:31;22.00;99.90
1570;DHT22;778;50.120;8.698;2023-08-01T13:46:00;21.90;99.90
1570;DHT22;778;50.120;8.698;2023-08-01T13:48:33;21.80;99.90
1570;DHT22;778;50.120;8.698;2023-08-01T13:51:02;21.80;99.90
1570;DHT22;778;50.120;8.698;2023-08-01T13:53:30;21.70;99.90
1570;DHT22;778;50.120;8.698;2023-08-01T13:56:00;21.50;99.90
1570;DHT22;778;50.120;8.698;2023-08-01T13:58:28;20.80;99.90
1570;DHT22;778;50.120;8.698;2023-08-01T14:01:02;20.30;99.90
1570;DHT22;778;50.120;8.698;2023-08-01T14:03:31;20.30;99.90
1570;DHT22;778;50.120;8.698;2023-08-01T14:06:04;20.10;99.90
1570;DHT22;778;50.120;8.698;2023-08-01T14:08:33;20.20;99.90
1570;DHT22;778;50.120;8.698;2023-08-01T14:11:04;20.20;99.90
1570;DHT22;778;50.120;8.698;2023-08-01T14:13:33;20.30;99.90
1570;DHT22;778;50.120;8.698;2023-08-01T14:16:03;20.40;99.90
1570;DHT22;778;50.120;8.698;2023-08-01T14:18:32;20.50;99.90
1570;DHT22;778;50.120;8.698;2023-08-01T14:21:00;20.50;99.90
1570;DHT22;778;50.120;8.698;2023-08-01T14:23:29;20.40;99.90
1570;DHT22;778;50.120;8.698;2023-08-01T14:25:58;20.40;99.90
1570;DHT22;778;50.120;8.698;2023-08-01T14:28:28;20.50;99.90
1570;DHT22;778;50.120;8.698;2023-08-01T14:31:00;20.60;99.90
1570;DHT22;778;50.120;8.698;2023-08-01T14:33:29;20.80;99.90
1570;DHT22;778;50.120;8.698;2023-08-01T14:35:57;20.90;99.90
1570;DHT22;778;50.120;8.698;2023-08-01T14:38:25;21.00;99.90
1570;DHT22;778;50.120;8.698;2023-08-01T14:40:54;21.00;99.90
1570;DHT22;778;50.120;8.698;2023-08-01T14:43:41;21.10;99.90
1570;DHT22;778;50.120;8.698;2023-08-01T14:46:11;21.20;99.90
1570;DHT22;778;50.120;8.698;2023-08-01T14:48:40;21.20;99.90
1570;DHT22;778;50.120;8.698;2023-08-01T14:51:08;21.30;99.90
1570;DHT22;778;50.120;8.698;2023-08-01T14:53:36;21.20;99.90
1570;DHT22;778;50.120;8.698;2023-08-01T14:56:05;21.20;99.90
1570;DHT22;778;50.120;8.698;2023-08-01T14:58:35;21.10;99.90
1570;DHT22;778;50.120;8.698;2023-08-01T15:01:12;21.00;99.90
1570;DHT22;778;50.120;8.698;2023-08-01T15:03:42;20.90;99.90
1570;DHT22;778;50.120;8.698;2023-08-01T15:06:11;21.00;99.90
1570;DHT22;778;50.120;8.698;2023-08-01T15:08:40;20.90;99.90
1570;DHT22;778;50.120;8.698;2023-08-01T15:11:08;20.80;99.90
1570;DHT22;778;50.120;8.698;2023-08-01T15:13:37;20.80;99.90
1570;DHT22;778;50.120;8.698;2023-08-01T15:16:09;20.80;99.90
1570;DHT22;778;50.120;8.698;2023-08-01T15:18:40;20.90;99.90
1570;DHT22;778;50.120;8.698;2023-08-01T15:21:09;20.90;99.90
1570;DHT22;778;50.120;8.698;2023-08-01T15:23:37;20.80;99.90
1570;DHT22;778;50.120;8.698;2023-08-01T15:26:05;20.80;99.90
1570;DHT22;778;50.120;8.698;2023-08-01T15:28:34;20.90;99.90
1570;DHT22;778;50.120;8.698;2023-08-01T15:31:04;21.00;99.90
1570;DHT22;778;50.120;8.698;2023-08-01T15:33:34;21.30;99.90
1570;DHT22;778;50.120;8.698;2023-08-01T15:36:06;21.40;99.90
1570;DHT22;778;50.120;8.698;2023-08-01T15:38:36;21.40;99.90
1570;DHT22;778;50.120;8.698;2023-08-01T15:41:06;21.30;99.90
1570;DHT22;778;50.120;8.698;2023-08-01T15:43:36;21.30;99.90
1570;DHT22;778;50.120;8.698;2023-08-01T15:46:07;21.10;99.90
1570;DHT22;778;50.120;8.698;2023-08-01T15:48:37;21.00;99.90
1570;DHT22;778;50.120;8.698;2023-08-01T15:51:07;21.00;99.90
1570;DHT22;778;50.120;8.698;2023-08-01T15:53:36;20.80;99.90
1570;DHT22;778;50.120;8.698;2023-08-01T15:56:06;20.80;99.90
1570;DHT22;778;50.120;8.698;2023-08-01T15:58:38;20.80;99.90
1570;DHT22;778;50.120;8.698;2023-08-01T16:01:07;20.80;99.90
1570;DHT22;778;50.120;8.698;2023-08-01T16:03:36;20.80;99.90
1570;DHT22;778;50.120;8.698;2023-08-01T16:06:08;20.70;99.90
1570;DHT22;778;50.120;8.698;2023-08-01T16:08:37;20.70;99.90
1570;DHT22;778;50.120;8.698;2023-08-01T16:11:05;20.80;99.90
1570;DHT22;778;50.120;8.698;2023-08-01T16:13:34;20.80;99.90
1570;DHT22;778;50.120;8.698;2023-08-01T16:16:02;20.80;99.90
1570;DHT22;778;50.120;8.698;2023-08-01T16:18:32;21.00;99.90
1570;DHT22;778;50.120;8.698;2023-08-01T16:21:01;21.10;99.90
1570;DHT22;778;50.120;8.698;2023-08-01T16:23:31;21.10;99.90
1570;DHT22;778;50.120;8.698;2023-08-01T16:25:59;21.20;99.90
1570;DHT22;778;50.120;8.698;2023-08-01T16:28:29;21.30;99.90
1570;DHT22;778;50.120;8.698;2023-08-01T16:30:57;21.40;99.90
1570;DHT22;778;50.120;8.698;2023-08-01T16:33:26;21.50;99.90
1570;DHT22;778;50.120;8.698;2023-08-01T16:35:54;21.50;99.90
1570;DHT22;778;50.120;8.698;2023-08-01T16:38:23;21.40;99.90